createdAt,value
2022-09-03T00:00:11.769Z,47.90
2022-09-03T00:01:25.850Z,47.74
2022-09-03T00:02:46.368Z,47.59
2022-09-03T00:04:11.381Z,47.79
2022-09-03T00:05:27.194Z,47.85
2022-09-03T00:06:49.469Z,47.80
2022-09-03T00:08:14.597Z,47.56
2022-09-03T00:09:45.112Z,47.90
2022-09-03T00:11:19.305Z,47.79
2022-09-03T00:12:32.265Z,47.83
2022-09-03T00:14:09.578Z,47.83
2022-09-03T00:15:23.934Z,47.90
2022-09-03T00:16:41.510Z,47.71
2022-09-03T00:18:17.044Z,47.90
2022-09-03T00:19:29.192Z,47.96
2022-09-03T00:20:41.789Z,47.87
2022-09-03T00:22:00.077Z,48.27
2022-09-03T00:23:14.875Z,48.20
2022-09-03T00:24:24.265Z,47.98
2022-09-03T00:25:43.301Z,48.16
2022-09-03T00:26:57.507Z,48.39
2022-09-03T00:28:09.100Z,48.33
2022-09-03T00:29:39.955Z,48.45
2022-09-03T00:30:55.804Z,48.52
2022-09-03T00:32:18.099Z,48.86
2022-09-03T00:33:28.703Z,48.64
2022-09-03T00:34:41.477Z,48.75
2022-09-03T00:36:03.321Z,48.48
2022-09-03T00:37:14.258Z,48.56
2022-09-03T00:38:20.236Z,48.71
2022-09-03T00:39:28.308Z,48.80
2022-09-03T00:41:06.869Z,48.43
2022-09-03T00:42:48.943Z,48.38
2022-09-03T00:44:10.081Z,48.58
2022-09-03T00:45:56.646Z,48.33
2022-09-03T00:47:16.349Z,48.63
2022-09-03T00:48:35.971Z,48.60
2022-09-03T00:50:17.788Z,48.26
2022-09-03T00:51:35.729Z,48.42
2022-09-03T00:53:31.801Z,48.07
2022-09-03T00:55:11.497Z,48.12
2022-09-03T00:56:45.338Z,48.53
2022-09-03T00:58:38.106Z,48.27
2022-09-03T00:59:59.105Z,48.20
2022-09-03T01:01:25.543Z,48.39
2022-09-03T01:03:11.769Z,48.09
2022-09-03T01:04:56.283Z,48.21
2022-09-03T01:06:23.810Z,48.22
2022-09-03T01:08:05.159Z,48.47
2022-09-03T01:09:48.351Z,48.45
2022-09-03T01:11:23.502Z,48.57
2022-09-03T01:13:02.319Z,48.69
2022-09-03T01:14:43.413Z,48.85
2022-09-03T01:16:11.158Z,48.90
2022-09-03T01:18:06.822Z,48.73
2022-09-03T01:20:00.007Z,48.82
2022-09-03T01:21:52.271Z,49.12
2022-09-03T01:23:36.157Z,48.87
2022-09-03T01:25:20.226Z,49.29
2022-09-03T01:26:35.437Z,49.21
2022-09-03T01:28:35.057Z,49.33
2022-09-03T01:30:18.186Z,49.70
2022-09-03T01:31:46.226Z,49.74
2022-09-03T01:33:32.295Z,50.02
2022-09-03T01:35:09.839Z,50.45
2022-09-03T01:36:54.945Z,50.86
2022-09-03T01:38:06.957Z,50.50
2022-09-03T01:39:22.528Z,51.03
2022-09-03T01:40:48.062Z,50.90
2022-09-03T01:42:20.417Z,50.65
2022-09-03T01:43:51.853Z,50.71
2022-09-03T01:45:33.554Z,50.69
2022-09-03T01:46:42.757Z,50.97
2022-09-03T01:48:27.084Z,51.06
2022-09-03T01:49:41.640Z,51.22
2022-09-03T01:51:00.403Z,51.51
2022-09-03T01:52:19.880Z,51.60
2022-09-03T01:54:25.013Z,51.87
2022-09-03T01:56:22.524Z,51.79
2022-09-03T01:57:51.068Z,51.78
2022-09-03T01:59:18.517Z,52.08
2022-09-03T02:00:23.235Z,52.15
2022-09-03T02:01:34.797Z,52.21
2022-09-03T02:02:39.315Z,51.91
2022-09-03T02:03:47.280Z,51.73
2022-09-03T02:05:09.466Z,52.08
2022-09-03T02:06:13.258Z,52.04
2022-09-03T02:07:16.948Z,52.66
2022-09-03T02:08:20.958Z,52.58
2022-09-03T02:09:25.000Z,52.42
2022-09-03T02:10:53.916Z,52.50
2022-09-03T02:12:17.187Z,52.52
2022-09-03T02:13:36.390Z,52.48
2022-09-03T02:14:40.670Z,52.47
2022-09-03T02:15:48.886Z,52.58
2022-09-03T02:16:53.067Z,52.23
2022-09-03T02:18:02.559Z,52.15
2022-09-03T02:19:12.934Z,52.16
2022-09-03T02:20:22.178Z,52.50
2022-09-03T02:21:34.257Z,52.60
2022-09-03T02:22:40.878Z,52.35
2022-09-03T02:23:44.813Z,52.30
2022-09-03T02:24:48.431Z,52.30
2022-09-03T02:26:01.877Z,52.48
2022-09-03T02:27:05.698Z,52.28
2022-09-03T02:28:15.732Z,52.44
2022-09-03T02:29:22.502Z,52.58
2022-09-03T02:30:26.296Z,52.42
2022-09-03T02:31:30.382Z,52.46
2022-09-03T02:32:34.265Z,52.47
2022-09-03T02:33:42.833Z,52.58
2022-09-03T02:34:47.419Z,52.55
2022-09-03T02:35:52.161Z,52.54
2022-09-03T02:36:55.702Z,52.69
2022-09-03T02:38:21.305Z,52.76
2022-09-03T02:39:24.938Z,52.74
2022-09-03T02:40:28.594Z,52.89
2022-09-03T02:41:33.618Z,52.81
2022-09-03T02:42:37.358Z,52.97
2022-09-03T02:43:52.761Z,53.09
2022-09-03T02:45:20.590Z,53.01
2022-09-03T02:46:33.677Z,53.08
2022-09-03T02:47:44.015Z,53.08
2022-09-03T02:48:47.592Z,53.33
2022-09-03T02:49:51.192Z,53.05
2022-09-03T02:50:55.260Z,53.26
2022-09-03T02:52:06.828Z,53.40
2022-09-03T02:53:10.778Z,53.38
2022-09-03T02:54:18.900Z,53.41
2022-09-03T02:55:24.411Z,53.62
2022-09-03T02:56:28.445Z,53.56
2022-09-03T02:57:32.210Z,53.42
2022-09-03T02:58:35.961Z,53.75
2022-09-03T02:59:41.829Z,53.57
2022-09-03T03:00:45.483Z,54.04
2022-09-03T03:01:49.787Z,53.91
2022-09-03T03:02:55.344Z,54.00
2022-09-03T03:03:59.302Z,54.15
2022-09-03T03:05:03.172Z,54.19
2022-09-03T03:06:07.419Z,54.40
2022-09-03T03:07:11.011Z,54.69
2022-09-03T03:08:21.473Z,54.48
2022-09-03T03:09:25.460Z,54.68
2022-09-03T03:10:29.013Z,54.67
2022-09-03T03:11:33.319Z,54.85
2022-09-03T03:12:37.976Z,54.85
2022-09-03T03:13:41.830Z,54.80
2022-09-03T03:14:45.525Z,55.22
2022-09-03T03:15:49.217Z,54.83
2022-09-03T03:16:52.856Z,55.15
2022-09-03T03:17:57.608Z,55.30
2022-09-03T03:19:01.345Z,55.42
2022-09-03T03:20:05.364Z,55.43
2022-09-03T03:21:12.843Z,55.93
2022-09-03T03:22:16.392Z,55.92
2022-09-03T03:23:20.358Z,56.32
2022-09-03T03:24:24.113Z,56.33
2022-09-03T03:25:28.037Z,56.45
2022-09-03T03:26:31.858Z,56.52
2022-09-03T03:27:36.156Z,56.56
2022-09-03T03:28:42.609Z,57.02
2022-09-03T03:29:46.389Z,56.87
2022-09-03T03:30:50.310Z,57.19
2022-09-03T03:31:54.695Z,57.07
2022-09-03T03:32:58.561Z,57.57
2022-09-03T03:34:03.949Z,57.67
2022-09-03T03:35:08.349Z,57.73
2022-09-03T03:36:16.228Z,57.77
2022-09-03T03:37:19.810Z,57.94
2022-09-03T03:38:23.496Z,58.20
2022-09-03T03:39:27.149Z,58.36
2022-09-03T03:40:31.693Z,58.20
2022-09-03T03:41:36.826Z,58.43
2022-09-03T03:42:40.498Z,58.36
2022-09-03T03:43:45.368Z,58.63
2022-09-03T03:44:48.850Z,58.55
2022-09-03T03:46:01.454Z,58.35
2022-09-03T03:47:06.183Z,58.31
2022-09-03T03:48:09.735Z,58.75
2022-09-03T03:49:13.351Z,58.88
2022-09-03T03:50:17.508Z,58.97
2022-09-03T03:51:21.342Z,58.83
2022-09-03T03:52:27.398Z,58.95
2022-09-03T03:53:31.865Z,59.09
2022-09-03T03:54:35.532Z,59.00
2022-09-03T03:55:39.364Z,59.11
2022-09-03T03:56:43.099Z,59.26
2022-09-03T03:57:46.779Z,59.31
2022-09-03T03:58:50.384Z,59.56
2022-09-03T03:59:53.900Z,59.63
2022-09-03T04:01:09.970Z,59.77
2022-09-03T04:02:14.959Z,59.45
2022-09-03T04:03:19.508Z,59.64
2022-09-03T04:04:23.112Z,60.31
2022-09-03T04:05:26.641Z,60.00
2022-09-03T04:06:30.531Z,60.25
2022-09-03T04:07:34.281Z,60.11
2022-09-03T04:08:40.996Z,60.19
2022-09-03T04:09:44.949Z,60.63
2022-09-03T04:10:48.951Z,60.25
2022-09-03T04:11:52.605Z,60.38
2022-09-03T04:12:56.527Z,60.62
2022-09-03T04:14:00.141Z,60.72
2022-09-03T04:15:04.249Z,60.73
2022-09-03T04:16:15.872Z,60.84
2022-09-03T04:17:24.551Z,61.21
2022-09-03T04:18:30.143Z,61.48
2022-09-03T04:19:33.727Z,61.45
2022-09-03T04:20:37.874Z,61.47
2022-09-03T04:21:41.567Z,61.85
2022-09-03T04:22:46.540Z,61.53
2022-09-03T04:23:54.357Z,61.65
2022-09-03T04:24:57.937Z,61.51
2022-09-03T04:26:01.916Z,61.74
2022-09-03T04:27:06.028Z,62.25
2022-09-03T04:28:09.554Z,62.12
2022-09-03T04:29:13.282Z,62.01
2022-09-03T04:30:16.836Z,62.47
2022-09-03T04:31:21.915Z,62.47
2022-09-03T04:32:44.343Z,62.46
2022-09-03T04:33:48.158Z,62.78
2022-09-03T04:34:51.937Z,62.81
2022-09-03T04:36:10.853Z,63.00
2022-09-03T04:37:16.556Z,63.07
2022-09-03T04:38:20.269Z,63.07
2022-09-03T04:39:23.997Z,62.88
2022-09-03T04:40:27.734Z,62.85
2022-09-03T04:41:32.423Z,62.69
2022-09-03T04:42:36.112Z,62.62
2022-09-03T04:43:42.578Z,62.87
2022-09-03T04:44:46.063Z,62.79
2022-09-03T04:45:49.842Z,63.09
2022-09-03T04:46:53.587Z,62.91
2022-09-03T04:48:00.295Z,63.17
2022-09-03T04:49:04.048Z,63.07
2022-09-03T04:50:08.307Z,63.06
2022-09-03T04:51:15.670Z,62.86
2022-09-03T04:52:19.720Z,62.62
2022-09-03T04:53:23.339Z,62.59
2022-09-03T04:54:28.109Z,62.73
2022-09-03T04:55:37.778Z,62.54
2022-09-03T04:56:41.708Z,62.77
2022-09-03T04:57:45.263Z,62.45
2022-09-03T04:58:55.775Z,62.52
2022-09-03T04:59:59.372Z,62.29
2022-09-03T05:01:09.619Z,62.39
2022-09-03T05:02:14.683Z,62.07
2022-09-03T05:03:18.262Z,62.26
2022-09-03T05:04:21.783Z,62.17
2022-09-03T05:05:25.481Z,61.59
2022-09-03T05:06:31.967Z,61.61
2022-09-03T05:07:38.924Z,61.39
2022-09-03T05:08:46.555Z,61.60
2022-09-03T05:09:51.420Z,61.44
2022-09-03T05:11:01.804Z,61.74
2022-09-03T05:12:06.065Z,61.60
2022-09-03T05:13:09.966Z,61.52
2022-09-03T05:14:13.708Z,61.88
2022-09-03T05:15:17.342Z,61.75
2022-09-03T05:16:23.833Z,61.55
2022-09-03T05:17:28.225Z,61.51
2022-09-03T05:18:32.369Z,61.13
2022-09-03T05:19:35.895Z,61.01
2022-09-03T05:20:39.397Z,61.38
2022-09-03T05:21:43.352Z,61.39
2022-09-03T05:22:46.816Z,61.21
2022-09-03T05:23:52.324Z,61.36
2022-09-03T05:24:56.431Z,61.01
2022-09-03T05:26:10.911Z,61.32
2022-09-03T05:27:18.025Z,60.94
2022-09-03T05:28:21.526Z,60.99
2022-09-03T05:29:26.476Z,60.92
2022-09-03T05:30:30.407Z,61.11
2022-09-03T05:31:39.140Z,61.40
2022-09-03T05:32:43.193Z,61.55
2022-09-03T05:33:53.564Z,61.55
2022-09-03T05:34:57.292Z,61.93
2022-09-03T05:36:07.835Z,62.05
2022-09-03T05:37:12.762Z,62.10
2022-09-03T05:38:17.218Z,62.42
2022-09-03T05:39:20.810Z,62.38
2022-09-03T05:40:24.565Z,62.46
2022-09-03T05:41:29.886Z,62.45
2022-09-03T05:42:35.411Z,62.54
2022-09-03T05:43:39.588Z,62.63
2022-09-03T05:44:44.249Z,63.03
2022-09-03T05:45:49.318Z,62.98
2022-09-03T05:46:53.620Z,63.09
2022-09-03T05:48:01.880Z,62.88
2022-09-03T05:49:07.969Z,63.36
2022-09-03T05:50:11.559Z,63.29
2022-09-03T05:51:20.443Z,63.40
2022-09-03T05:52:24.008Z,63.57
2022-09-03T05:53:29.544Z,63.46
2022-09-03T05:54:33.047Z,63.47
2022-09-03T05:55:36.627Z,63.94
2022-09-03T05:56:42.735Z,63.77
2022-09-03T05:57:52.536Z,63.62
2022-09-03T05:59:05.669Z,63.45
2022-09-03T06:00:10.931Z,63.19
2022-09-03T06:01:17.420Z,63.27
2022-09-03T06:02:21.174Z,62.91
2022-09-03T06:03:25.307Z,62.56
2022-09-03T06:04:29.082Z,62.27
2022-09-03T06:05:32.664Z,62.09
2022-09-03T06:06:39.843Z,61.49
2022-09-03T06:07:43.485Z,60.96
2022-09-03T06:08:51.686Z,60.56
2022-09-03T06:09:55.422Z,59.87
2022-09-03T06:11:01.430Z,58.95
2022-09-03T06:12:05.517Z,58.05
2022-09-03T06:13:09.343Z,57.14
2022-09-03T06:14:14.656Z,56.24
2022-09-03T06:15:18.284Z,55.47
2022-09-03T06:16:30.652Z,54.90
2022-09-03T06:17:37.764Z,54.27
2022-09-03T06:18:41.401Z,53.74
2022-09-03T06:19:45.083Z,53.14
2022-09-03T06:21:00.226Z,52.37
2022-09-03T06:22:04.202Z,51.81
2022-09-03T06:23:07.789Z,51.26
2022-09-03T06:24:17.987Z,51.23
2022-09-03T06:25:22.096Z,50.92
2022-09-03T06:26:28.245Z,51.15
2022-09-03T06:27:31.763Z,51.36
2022-09-03T06:28:38.227Z,51.64
2022-09-03T06:29:42.029Z,52.12
2022-09-03T06:30:45.563Z,52.50
2022-09-03T06:31:50.963Z,53.06
2022-09-03T06:32:54.785Z,53.59
2022-09-03T06:34:03.402Z,54.01
2022-09-03T06:35:08.851Z,54.23
2022-09-03T06:36:16.111Z,54.76
2022-09-03T06:37:19.710Z,55.22
2022-09-03T06:38:24.006Z,55.72
2022-09-03T06:39:27.769Z,56.21
2022-09-03T06:40:31.961Z,56.40
2022-09-03T06:41:35.788Z,56.74
2022-09-03T06:42:41.555Z,57.11
2022-09-03T06:43:49.627Z,57.50
2022-09-03T06:44:53.214Z,57.57
2022-09-03T06:46:03.371Z,57.70
2022-09-03T06:47:07.008Z,57.77
2022-09-03T06:48:10.558Z,58.22
2022-09-03T06:49:14.788Z,58.28
2022-09-03T06:50:18.592Z,58.78
2022-09-03T06:51:26.915Z,58.91
2022-09-03T06:52:30.388Z,58.97
2022-09-03T06:53:38.233Z,59.21
2022-09-03T06:54:42.323Z,59.58
2022-09-03T06:56:01.860Z,59.31
2022-09-03T06:57:05.664Z,59.38
2022-09-03T06:58:10.900Z,59.56
2022-09-03T06:59:15.761Z,59.16
2022-09-03T07:00:19.396Z,59.03
2022-09-03T07:01:26.730Z,58.53
2022-09-03T07:02:30.402Z,58.42
2022-09-03T07:03:38.962Z,58.07
2022-09-03T07:04:42.624Z,57.66
2022-09-03T07:05:48.415Z,57.22
2022-09-03T07:06:52.001Z,56.57
2022-09-03T07:07:55.596Z,56.30
2022-09-03T07:08:59.899Z,56.20
2022-09-03T07:10:03.741Z,56.17
2022-09-03T07:11:11.624Z,55.76
2022-09-03T07:12:18.777Z,56.15
2022-09-03T07:13:22.809Z,56.50
2022-09-03T07:14:26.350Z,56.74
2022-09-03T07:15:30.823Z,56.82
2022-09-03T07:16:37.452Z,57.34
2022-09-03T07:17:41.322Z,57.27
2022-09-03T07:18:46.039Z,57.49
2022-09-03T07:19:49.600Z,57.62
2022-09-03T07:20:57.480Z,57.72
2022-09-03T07:22:01.475Z,57.89
2022-09-03T07:23:05.046Z,58.01
2022-09-03T07:24:10.019Z,58.04
2022-09-03T07:25:13.713Z,58.16
2022-09-03T07:26:26.358Z,58.12
2022-09-03T07:27:30.451Z,58.20
2022-09-03T07:28:37.949Z,58.58
2022-09-03T07:29:41.635Z,58.78
2022-09-03T07:30:45.168Z,59.53
2022-09-03T07:31:53.664Z,59.57
2022-09-03T07:33:01.888Z,59.65
2022-09-03T07:34:12.768Z,59.61
2022-09-03T07:35:16.590Z,59.88
2022-09-03T07:36:20.091Z,59.90
2022-09-03T07:37:23.643Z,59.93
2022-09-03T07:38:27.338Z,59.67
2022-09-03T07:39:30.880Z,59.57
2022-09-03T07:40:34.577Z,59.33
2022-09-03T07:41:39.030Z,59.57
2022-09-03T07:42:42.675Z,59.49
2022-09-03T07:43:47.273Z,59.46
2022-09-03T07:44:50.851Z,59.63
2022-09-03T07:45:56.114Z,59.45
2022-09-03T07:47:00.891Z,59.32
2022-09-03T07:48:04.819Z,59.82
2022-09-03T07:49:08.526Z,59.94
2022-09-03T07:50:12.300Z,59.67
2022-09-03T07:51:16.064Z,59.52
2022-09-03T07:52:19.696Z,59.26
2022-09-03T07:53:23.401Z,58.96
2022-09-03T07:54:27.514Z,58.62
2022-09-03T07:55:31.399Z,58.95
2022-09-03T07:56:36.443Z,58.27
2022-09-03T07:57:40.355Z,58.52
2022-09-03T07:58:43.956Z,58.46
2022-09-03T07:59:48.152Z,58.59
2022-09-03T08:00:51.694Z,58.43
2022-09-03T08:01:55.552Z,58.58
2022-09-03T08:03:04.252Z,58.66
2022-09-03T08:04:09.757Z,58.68
2022-09-03T08:05:13.818Z,58.58
2022-09-03T08:06:20.576Z,58.74
2022-09-03T08:07:24.294Z,58.72
2022-09-03T08:08:35.478Z,58.63
2022-09-03T08:09:39.355Z,58.77
2022-09-03T08:10:42.829Z,58.91
2022-09-03T08:11:46.314Z,58.80
2022-09-03T08:12:50.826Z,58.79
2022-09-03T08:14:02.676Z,57.96
2022-09-03T08:15:07.023Z,57.72
2022-09-03T08:16:17.204Z,57.31
2022-09-03T08:17:20.782Z,57.16
2022-09-03T08:18:24.564Z,56.58
2022-09-03T08:19:28.259Z,56.40
2022-09-03T08:20:32.478Z,56.03
2022-09-03T08:21:36.464Z,55.96
2022-09-03T08:22:39.947Z,55.74
2022-09-03T08:23:49.831Z,55.64
2022-09-03T08:24:54.678Z,55.76
2022-09-03T08:26:02.196Z,55.62
2022-09-03T08:27:05.807Z,55.67
2022-09-03T08:28:09.314Z,55.69
2022-09-03T08:29:13.107Z,55.49
2022-09-03T08:30:17.797Z,55.95
2022-09-03T08:31:25.262Z,55.91
2022-09-03T08:32:28.821Z,56.35
2022-09-03T08:33:38.904Z,56.87
2022-09-03T08:34:42.608Z,56.90
2022-09-03T08:35:54.880Z,56.99
2022-09-03T08:37:01.521Z,56.87
2022-09-03T08:38:23.452Z,56.67
2022-09-03T08:39:27.096Z,56.00
2022-09-03T08:40:34.086Z,55.89
2022-09-03T08:42:21.353Z,55.63
2022-09-03T08:43:25.548Z,55.16
2022-09-03T08:45:02.731Z,55.72
2022-09-03T08:46:07.370Z,56.09
2022-09-03T08:47:34.902Z,56.00
2022-09-03T08:48:38.438Z,55.91
2022-09-03T08:50:18.311Z,56.67
2022-09-03T08:51:28.198Z,56.74
2022-09-03T08:52:49.265Z,57.33
2022-09-03T08:53:57.505Z,57.24
2022-09-03T08:55:19.186Z,57.66
2022-09-03T08:56:29.787Z,57.72
2022-09-03T08:57:43.567Z,57.79
2022-09-03T08:58:47.280Z,57.83
2022-09-03T09:00:00.108Z,57.63
2022-09-03T09:01:40.076Z,58.12
2022-09-03T09:03:07.975Z,57.73
2022-09-03T09:04:35.226Z,57.73
2022-09-03T09:06:00.443Z,57.72
2022-09-03T09:07:21.985Z,57.93
2022-09-03T09:08:53.350Z,57.83
2022-09-03T09:10:04.157Z,57.52
2022-09-03T09:11:44.093Z,57.50
2022-09-03T09:13:41.632Z,57.25
2022-09-03T09:15:37.705Z,57.00
2022-09-03T09:17:00.884Z,56.99
2022-09-03T09:18:31.469Z,56.92
2022-09-03T09:20:17.466Z,57.32
2022-09-03T09:21:46.277Z,57.76
2022-09-03T09:23:04.936Z,57.95
2022-09-03T09:24:27.323Z,57.88
2022-09-03T09:25:32.791Z,58.16
2022-09-03T09:26:36.288Z,57.81
2022-09-03T09:27:51.783Z,58.29
2022-09-03T09:29:04.621Z,58.35
2022-09-03T09:30:18.233Z,58.74
2022-09-03T09:31:22.348Z,58.68
2022-09-03T09:32:25.915Z,58.74
2022-09-03T09:33:32.637Z,58.80
2022-09-03T09:34:41.347Z,58.56
2022-09-03T09:35:46.100Z,58.82
2022-09-03T09:36:54.806Z,58.38
2022-09-03T09:38:02.396Z,58.39
2022-09-03T09:39:11.969Z,58.05
2022-09-03T09:40:44.923Z,57.97
2022-09-03T09:42:11.566Z,58.16
2022-09-03T09:43:21.820Z,57.71
2022-09-03T09:44:27.047Z,58.16
2022-09-03T09:45:32.617Z,58.20
2022-09-03T09:46:41.331Z,58.13
2022-09-03T09:47:47.378Z,58.63
2022-09-03T09:48:59.435Z,58.38
2022-09-03T09:50:04.643Z,58.42
2022-09-03T09:51:18.251Z,58.09
2022-09-03T09:52:26.144Z,57.77
2022-09-03T09:53:30.492Z,57.66
2022-09-03T09:54:34.497Z,57.82
2022-09-03T09:55:58.228Z,57.01
2022-09-03T09:57:06.655Z,57.29
2022-09-03T09:58:14.442Z,57.61
2022-09-03T09:59:20.202Z,57.49
2022-09-03T10:00:23.729Z,57.71
2022-09-03T10:01:30.487Z,57.74
2022-09-03T10:02:36.797Z,57.59
2022-09-03T10:03:59.997Z,57.27
2022-09-03T10:05:37.061Z,56.94
2022-09-03T10:06:57.335Z,56.89
2022-09-03T10:08:16.711Z,56.56
2022-09-03T10:09:31.355Z,56.56
2022-09-03T10:10:47.235Z,56.91
2022-09-03T10:12:59.304Z,56.28
2022-09-03T10:14:06.215Z,56.36
2022-09-03T10:15:33.812Z,56.11
2022-09-03T10:16:49.158Z,55.88
2022-09-03T10:18:28.520Z,55.81
2022-09-03T10:20:33.999Z,55.73
2022-09-03T10:21:56.388Z,55.60
2022-09-03T10:23:18.981Z,55.47
2022-09-03T10:24:53.076Z,55.38
2022-09-03T10:26:11.459Z,55.48
2022-09-03T10:27:19.075Z,55.17
2022-09-03T10:28:28.078Z,54.81
2022-09-03T10:29:33.198Z,54.93
2022-09-03T10:31:44.886Z,54.49
2022-09-03T10:33:15.914Z,54.32
2022-09-03T10:34:53.336Z,54.22
2022-09-03T10:36:17.062Z,54.06
2022-09-03T10:38:01.601Z,53.88
2022-09-03T10:39:43.672Z,53.39
2022-09-03T10:41:08.397Z,53.50
2022-09-03T10:42:49.442Z,53.27
2022-09-03T10:44:28.945Z,53.39
2022-09-03T10:45:42.670Z,53.87
2022-09-03T10:47:37.092Z,53.91
2022-09-03T10:49:14.061Z,54.02
2022-09-03T10:50:23.776Z,53.53
2022-09-03T10:51:39.044Z,53.18
2022-09-03T10:53:25.755Z,52.60
2022-09-03T10:54:35.778Z,52.22
2022-09-03T10:56:05.739Z,52.53
2022-09-03T10:57:51.471Z,52.98
2022-09-03T10:59:29.316Z,52.98
2022-09-03T11:00:39.348Z,52.99
2022-09-03T11:02:12.206Z,53.31
2022-09-03T11:04:09.175Z,53.59
2022-09-03T11:06:03.904Z,53.56
2022-09-03T11:07:15.481Z,53.76
2022-09-03T11:08:43.159Z,54.15
2022-09-03T11:09:57.432Z,54.04
2022-09-03T11:11:33.248Z,53.97
2022-09-03T11:12:45.286Z,54.01
2022-09-03T11:14:03.784Z,54.26
2022-09-03T11:15:36.315Z,54.32
2022-09-03T11:16:55.026Z,54.21
2022-09-03T11:18:30.785Z,54.29
2022-09-03T11:19:51.129Z,54.31
2022-09-03T11:21:07.660Z,54.05
2022-09-03T11:22:20.900Z,54.23
2022-09-03T11:23:29.383Z,54.39
2022-09-03T11:24:40.049Z,54.58
2022-09-03T11:26:02.197Z,54.97
2022-09-03T11:27:33.322Z,55.49
2022-09-03T11:28:45.493Z,55.70
2022-09-03T11:30:10.446Z,55.83
2022-09-03T11:31:37.639Z,56.24
2022-09-03T11:32:53.579Z,56.09
2022-09-03T11:34:32.659Z,56.25
2022-09-03T11:35:36.380Z,55.61
2022-09-03T11:36:44.782Z,55.80
2022-09-03T11:38:27.657Z,55.85
2022-09-03T11:39:40.196Z,55.90
2022-09-03T11:41:14.378Z,55.95
2022-09-03T11:42:37.092Z,55.98
2022-09-03T11:43:42.969Z,55.59
2022-09-03T11:44:52.114Z,55.91
2022-09-03T11:46:29.972Z,55.15
2022-09-03T11:47:45.070Z,54.53
2022-09-03T11:48:58.470Z,53.85
2022-09-03T11:50:28.082Z,53.71
2022-09-03T11:51:37.841Z,53.33
2022-09-03T11:52:41.453Z,53.13
2022-09-03T11:54:13.967Z,53.31
2022-09-03T11:55:43.171Z,53.14
2022-09-03T11:56:49.851Z,53.34
2022-09-03T11:57:53.552Z,53.38
2022-09-03T11:59:24.677Z,53.38
2022-09-03T12:00:28.319Z,52.94
2022-09-03T12:01:35.525Z,52.93
2022-09-03T12:02:54.305Z,53.25
2022-09-03T12:04:06.282Z,53.25
2022-09-03T12:05:54.416Z,53.07
2022-09-03T12:07:24.906Z,53.23
2022-09-03T12:09:06.025Z,53.03
2022-09-03T12:10:22.723Z,53.20
2022-09-03T12:12:28.179Z,53.36
2022-09-03T12:13:56.602Z,53.04
2022-09-03T12:15:25.982Z,53.08
2022-09-03T12:17:04.678Z,53.12
2022-09-03T12:18:31.115Z,53.25
2022-09-03T12:19:58.926Z,52.86
2022-09-03T12:21:08.570Z,52.69
2022-09-03T12:22:17.752Z,52.73
2022-09-03T12:23:50.286Z,52.47
2022-09-03T12:24:54.522Z,52.31
2022-09-03T12:26:09.708Z,52.23
2022-09-03T12:27:24.927Z,52.64
2022-09-03T12:28:31.167Z,53.01
2022-09-03T12:29:34.864Z,53.27
2022-09-03T12:30:39.388Z,53.56
2022-09-03T12:31:50.336Z,53.32
2022-09-03T12:33:06.787Z,53.37
2022-09-03T12:34:15.201Z,53.04
2022-09-03T12:36:54.788Z,52.78
2022-09-03T12:38:08.307Z,52.66
2022-09-03T12:42:31.458Z,52.65
2022-09-03T12:43:39.237Z,52.46
2022-09-03T12:44:43.359Z,52.68
2022-09-03T12:47:40.614Z,52.90
2022-09-03T12:50:23.760Z,52.78
2022-09-03T12:53:03.773Z,52.82
2022-09-03T12:54:16.067Z,53.01
2022-09-03T12:55:31.433Z,53.11
2022-09-03T12:56:42.209Z,53.14
2022-09-03T12:57:56.952Z,53.46
2022-09-03T12:59:15.790Z,53.26
2022-09-03T13:00:19.997Z,53.16
2022-09-03T13:01:36.770Z,52.44
2022-09-03T13:03:16.872Z,52.06
2022-09-03T13:04:32.936Z,52.16
2022-09-03T13:05:48.749Z,52.20
2022-09-03T13:07:07.273Z,51.94
2022-09-03T13:08:21.792Z,52.04
2022-09-03T13:09:30.111Z,52.32
2022-09-03T13:10:42.433Z,52.11
2022-09-03T13:11:46.058Z,52.59
2022-09-03T13:12:53.172Z,52.33
2022-09-03T13:14:14.779Z,52.20
2022-09-03T13:15:30.923Z,52.16
2022-09-03T13:16:46.490Z,52.57
2022-09-03T13:18:06.401Z,52.67
2022-09-03T13:19:52.339Z,52.80
2022-09-03T13:21:39.957Z,52.74
2022-09-03T13:23:12.096Z,52.82
2022-09-03T13:25:02.306Z,52.53
2022-09-03T13:26:40.803Z,52.04
2022-09-03T13:27:53.029Z,52.01
2022-09-03T13:29:23.325Z,51.88
2022-09-03T13:30:48.941Z,52.01
2022-09-03T13:32:25.938Z,51.93
2022-09-03T13:33:56.776Z,51.91
2022-09-03T13:35:40.628Z,51.55
2022-09-03T13:37:02.319Z,51.78
2022-09-03T13:38:43.382Z,51.24
2022-09-03T13:40:00.740Z,51.85
2022-09-03T13:41:20.614Z,51.55
2022-09-03T13:42:58.789Z,52.23
2022-09-03T13:44:40.888Z,51.62
2022-09-03T13:46:24.178Z,51.89
2022-09-03T13:48:04.195Z,51.50
2022-09-03T13:50:13.213Z,51.00
2022-09-03T13:51:49.998Z,50.83
2022-09-03T13:53:05.075Z,50.87
2022-09-03T13:54:48.743Z,51.03
2022-09-03T13:56:05.319Z,50.92
2022-09-03T13:57:38.445Z,51.10
2022-09-03T13:59:00.930Z,51.13
2022-09-03T14:00:12.370Z,50.96
2022-09-03T14:01:27.052Z,51.30
2022-09-03T14:02:33.310Z,51.34
2022-09-03T14:03:57.919Z,51.30
2022-09-03T14:05:10.351Z,51.26
2022-09-03T14:06:42.685Z,51.30
2022-09-03T14:07:57.077Z,51.62
2022-09-03T14:09:12.170Z,51.43
2022-09-03T14:10:21.612Z,51.28
2022-09-03T14:12:14.556Z,50.89
2022-09-03T14:13:48.825Z,51.23
2022-09-03T14:15:11.074Z,51.33
2022-09-03T14:16:42.331Z,51.53
2022-09-03T14:18:12.370Z,51.67
2022-09-03T14:19:45.585Z,51.83
2022-09-03T14:21:29.349Z,51.73
2022-09-03T14:23:03.747Z,51.93
2022-09-03T14:25:16.429Z,52.00
2022-09-03T14:26:39.071Z,51.94
2022-09-03T14:27:43.912Z,52.07
2022-09-03T14:28:59.415Z,52.52
2022-09-03T14:30:46.693Z,52.45
2022-09-03T14:31:56.464Z,52.39
2022-09-03T14:33:55.138Z,52.68
2022-09-03T14:35:07.266Z,52.84
2022-09-03T14:36:52.874Z,52.87
2022-09-03T14:38:49.868Z,53.01
2022-09-03T14:40:04.675Z,52.93
2022-09-03T14:41:17.001Z,52.89
2022-09-03T14:43:10.289Z,52.49
2022-09-03T14:44:38.279Z,52.92
2022-09-03T14:46:28.271Z,52.99
2022-09-03T14:48:29.116Z,53.04
2022-09-03T14:50:03.803Z,53.21
2022-09-03T14:51:21.880Z,53.11
2022-09-03T14:52:49.547Z,53.27
2022-09-03T14:54:48.949Z,53.08
2022-09-03T14:56:24.314Z,53.48
2022-09-03T14:57:45.982Z,53.24
2022-09-03T14:59:31.847Z,53.41
2022-09-03T15:00:58.447Z,53.38
2022-09-03T15:02:52.706Z,53.49
2022-09-03T15:04:18.016Z,53.75
2022-09-03T15:06:05.741Z,54.01
2022-09-03T15:07:27.848Z,53.72
2022-09-03T15:09:09.990Z,53.91
2022-09-03T15:10:33.101Z,54.30
2022-09-03T15:12:19.772Z,54.14
2022-09-03T15:13:34.656Z,53.91
2022-09-03T15:14:59.191Z,53.96
2022-09-03T15:16:31.698Z,54.05
2022-09-03T15:17:49.614Z,53.87
2022-09-03T15:19:39.717Z,53.74
2022-09-03T15:21:02.092Z,53.74
2022-09-03T15:22:52.146Z,53.97
2022-09-03T15:24:18.752Z,54.18
2022-09-03T15:26:15.894Z,54.02
2022-09-03T15:28:11.899Z,54.01
2022-09-03T15:29:48.300Z,54.29
2022-09-03T15:31:02.614Z,54.27
2022-09-03T15:32:39.938Z,54.27
2022-09-03T15:34:26.370Z,54.23
2022-09-03T15:35:44.383Z,54.22
2022-09-03T15:36:54.539Z,54.40
2022-09-03T15:38:41.729Z,54.46
2022-09-03T15:39:57.182Z,54.46
2022-09-03T15:41:40.333Z,54.39
2022-09-03T15:42:48.907Z,54.40
2022-09-03T15:44:01.191Z,54.64
2022-09-03T15:45:37.078Z,54.70
2022-09-03T15:46:50.941Z,54.68
2022-09-03T15:48:09.163Z,54.88
2022-09-03T15:49:45.001Z,54.92
2022-09-03T15:51:10.137Z,55.01
2022-09-03T15:52:28.788Z,55.21
2022-09-03T15:54:07.839Z,55.30
2022-09-03T15:55:26.449Z,55.23
2022-09-03T15:57:06.991Z,55.35
2022-09-03T15:58:48.424Z,55.45
2022-09-03T16:00:04.253Z,55.89
2022-09-03T16:01:32.614Z,55.75
2022-09-03T16:03:07.839Z,56.02
2022-09-03T16:04:24.950Z,56.24
2022-09-03T16:05:55.479Z,56.12
2022-09-03T16:07:42.609Z,56.25
2022-09-03T16:09:22.938Z,56.61
2022-09-03T16:10:53.152Z,56.58
2022-09-03T16:12:21.338Z,56.75
2022-09-03T16:14:11.331Z,56.83
2022-09-03T16:15:48.656Z,56.78
2022-09-03T16:17:31.262Z,57.08
2022-09-03T16:18:45.630Z,57.25
2022-09-03T16:20:10.347Z,57.17
2022-09-03T16:45:19.993Z,60.61
2022-09-03T16:46:46.725Z,60.75
2022-09-03T16:48:37.565Z,60.27
2022-09-03T16:50:10.280Z,60.77
2022-09-03T16:51:35.334Z,60.79
2022-09-03T16:53:29.604Z,60.75
2022-09-03T16:54:42.413Z,60.54